createdAt,value
2023-03-14T00:00:12.045Z,99.90
2023-03-14T00:02:39.144Z,99.90
2023-03-14T00:05:07.568Z,99.90
2023-03-14T00:07:37.291Z,99.90
2023-03-14T00:10:05.979Z,99.90
2023-03-14T00:12:32.970Z,99.90
2023-03-14T00:15:01.042Z,99.90
2023-03-14T00:17:28.186Z,99.90
2023-03-14T00:19:54.867Z,99.90
2023-03-14T00:22:22.342Z,99.90
2023-03-14T00:24:49.076Z,99.90
2023-03-14T00:27:15.640Z,99.90
2023-03-14T00:29:43.680Z,99.90
2023-03-14T00:32:10.294Z,99.90
2023-03-14T00:34:36.846Z,99.90
2023-03-14T00:37:03.470Z,99.90
2023-03-14T00:39:30.015Z,99.90
2023-03-14T00:41:56.621Z,99.90
2023-03-14T00:44:23.251Z,99.90
2023-03-14T00:46:49.908Z,99.90
2023-03-14T00:49:16.642Z,99.90
2023-03-14T00:51:43.230Z,99.90
2023-03-14T00:54:09.800Z,99.90
2023-03-14T00:56:36.359Z,99.90
2023-03-14T00:59:02.914Z,99.90
2023-03-14T01:01:29.528Z,99.90
2023-03-14T01:03:56.824Z,99.90
2023-03-14T01:06:26.236Z,99.90
2023-03-14T01:08:53.919Z,99.90
2023-03-14T01:11:27.544Z,99.90
2023-03-14T01:13:54.920Z,99.90
2023-03-14T01:16:23.166Z,99.90
2023-03-14T01:18:50.485Z,99.90
2023-03-14T01:21:25.036Z,99.90
2023-03-14T01:23:54.909Z,99.90
2023-03-14T01:26:23.912Z,99.90
2023-03-14T01:28:51.960Z,99.90
2023-03-14T01:31:19.236Z,99.90
2023-03-14T01:33:46.515Z,99.90
2023-03-14T01:36:14.032Z,99.90
2023-03-14T01:38:40.938Z,99.90
2023-03-14T01:41:12.705Z,99.90
2023-03-14T01:43:39.298Z,99.90
2023-03-14T01:46:06.007Z,99.90
2023-03-14T01:48:38.491Z,99.90
2023-03-14T01:51:13.969Z,99.90
2023-03-14T01:53:42.765Z,99.90
2023-03-14T01:56:12.372Z,99.90
2023-03-14T01:58:41.339Z,99.90
2023-03-14T02:01:09.984Z,99.80
2023-03-14T02:03:48.647Z,99.90
2023-03-14T02:06:18.489Z,99.90
2023-03-14T02:08:49.288Z,99.80
2023-03-14T02:11:16.918Z,99.90
2023-03-14T02:13:44.157Z,99.80
2023-03-14T02:16:10.764Z,99.90
2023-03-14T02:18:37.973Z,99.90
2023-03-14T02:21:25.790Z,99.50
2023-03-14T02:24:17.177Z,99.30
2023-03-14T02:27:13.742Z,99.30
2023-03-14T02:29:51.620Z,99.60
2023-03-14T02:32:20.082Z,99.60
2023-03-14T02:34:51.350Z,99.60
2023-03-14T02:37:19.976Z,99.30
2023-03-14T02:39:47.104Z,99.30
2023-03-14T02:42:14.807Z,99.20
2023-03-14T02:44:56.105Z,99.20
2023-03-14T02:47:29.051Z,98.70
2023-03-14T02:50:02.500Z,99.40
2023-03-14T02:52:29.178Z,99.20
2023-03-14T02:54:55.763Z,99.30
2023-03-14T02:57:22.289Z,99.40
2023-03-14T02:59:48.847Z,99.30
2023-03-14T03:02:15.426Z,99.40
2023-03-14T03:04:41.996Z,99.70
2023-03-14T03:07:09.031Z,99.70
2023-03-14T03:09:35.618Z,99.70
2023-03-14T03:12:02.139Z,99.80
2023-03-14T03:14:28.712Z,99.90
2023-03-14T03:16:55.259Z,99.90
2023-03-14T03:19:21.875Z,99.90
2023-03-14T03:21:49.197Z,99.90
2023-03-14T03:24:15.757Z,99.90
2023-03-14T03:26:42.366Z,99.90
2023-03-14T03:29:09.025Z,99.90
2023-03-14T03:31:38.392Z,99.90
2023-03-14T03:34:05.160Z,99.90
2023-03-14T03:36:31.771Z,99.90
2023-03-14T03:38:58.304Z,99.90
2023-03-14T03:41:24.882Z,99.90
2023-03-14T03:43:51.464Z,99.90
2023-03-14T03:46:18.126Z,99.90
2023-03-14T03:48:44.744Z,99.90
2023-03-14T03:51:16.342Z,99.90
2023-03-14T03:53:43.920Z,99.90
2023-03-14T03:56:10.809Z,99.90
2023-03-14T03:58:39.611Z,99.90
2023-03-14T04:01:07.719Z,99.90
2023-03-14T04:03:34.543Z,99.90
2023-03-14T04:06:03.579Z,99.90
2023-03-14T04:08:31.095Z,99.80
2023-03-14T04:11:01.920Z,99.90
2023-03-14T04:13:29.516Z,99.90
2023-03-14T04:15:56.653Z,99.80
2023-03-14T04:18:25.505Z,99.50
2023-03-14T04:20:53.653Z,99.20
2023-03-14T04:23:20.959Z,98.90
2023-03-14T04:25:47.472Z,98.70
2023-03-14T04:28:13.972Z,98.60
2023-03-14T04:30:40.476Z,98.70
2023-03-14T04:33:08.121Z,98.50
2023-03-14T04:35:34.801Z,98.50
2023-03-14T04:38:01.777Z,98.50
2023-03-14T04:40:28.298Z,98.60
2023-03-14T04:42:54.841Z,98.50
2023-03-14T04:45:21.613Z,98.60
2023-03-14T04:47:48.187Z,98.60
2023-03-14T04:50:14.743Z,98.70
2023-03-14T04:52:41.329Z,98.70
2023-03-14T04:55:08.155Z,98.70
2023-03-14T04:57:34.683Z,98.80
2023-03-14T05:00:01.271Z,98.80
2023-03-14T05:02:27.940Z,98.90
2023-03-14T05:04:54.501Z,98.50
2023-03-14T05:07:21.084Z,98.50
2023-03-14T05:09:47.632Z,98.20
2023-03-14T05:12:14.229Z,98.40
2023-03-14T05:14:40.827Z,98.20
2023-03-14T05:17:07.375Z,98.30
2023-03-14T05:19:35.795Z,98.20
2023-03-14T05:22:02.693Z,98.20
2023-03-14T05:24:29.274Z,97.90
2023-03-14T05:26:56.432Z,97.70
2023-03-14T05:29:22.944Z,97.80
2023-03-14T05:31:49.549Z,97.60
2023-03-14T05:34:16.162Z,97.70
2023-03-14T05:36:42.811Z,97.60
2023-03-14T05:39:09.338Z,97.50
2023-03-14T05:41:36.651Z,97.30
2023-03-14T05:44:03.332Z,97.40
2023-03-14T05:46:31.680Z,97.30
2023-03-14T05:48:59.464Z,97.40
2023-03-14T05:51:26.725Z,97.20
2023-03-14T05:53:53.276Z,97.00
2023-03-14T05:56:20.343Z,96.90
2023-03-14T05:58:46.883Z,96.60
2023-03-14T06:01:13.394Z,96.60
2023-03-14T06:03:40.008Z,96.30
2023-03-14T06:06:07.052Z,96.30
2023-03-14T06:08:35.279Z,96.20
2023-03-14T06:11:03.959Z,96.00
2023-03-14T06:13:30.563Z,96.00
2023-03-14T06:15:57.300Z,96.00
2023-03-14T06:18:23.850Z,96.00
2023-03-14T06:20:50.442Z,96.10
2023-03-14T06:23:16.982Z,96.20
2023-03-14T06:25:43.542Z,95.70
2023-03-14T06:28:10.076Z,95.50
2023-03-14T06:30:36.741Z,95.30
2023-03-14T06:33:03.545Z,95.10
2023-03-14T06:35:30.251Z,95.10
2023-03-14T06:37:56.852Z,95.00
2023-03-14T06:40:23.671Z,94.60
2023-03-14T06:42:50.279Z,94.80
2023-03-14T06:45:17.208Z,94.80
2023-03-14T06:47:43.847Z,94.30
2023-03-14T06:50:11.515Z,94.20
2023-03-14T06:52:38.494Z,94.30
2023-03-14T06:55:05.725Z,94.50
2023-03-14T06:57:32.310Z,94.20
2023-03-14T06:59:58.834Z,94.20
2023-03-14T07:02:39.762Z,93.90
2023-03-14T07:05:11.094Z,93.80
2023-03-14T07:07:37.705Z,93.70
2023-03-14T07:10:04.679Z,93.40
2023-03-14T07:12:31.275Z,93.10
2023-03-14T07:15:05.687Z,92.60
2023-03-14T07:17:38.662Z,92.00
2023-03-14T07:20:08.246Z,91.50
2023-03-14T07:22:35.237Z,90.80
2023-03-14T07:25:01.859Z,90.30
2023-03-14T07:27:28.422Z,90.60
2023-03-14T07:29:55.002Z,90.40
2023-03-14T07:32:21.763Z,90.80
2023-03-14T07:34:48.315Z,91.50
2023-03-14T07:37:15.327Z,91.50
2023-03-14T07:39:41.896Z,91.60
2023-03-14T07:42:08.541Z,91.80
2023-03-14T07:44:35.589Z,92.10
2023-03-14T07:47:02.687Z,92.60
2023-03-14T07:49:29.480Z,92.50
2023-03-14T07:51:56.064Z,92.50
2023-03-14T07:54:23.004Z,92.60
2023-03-14T07:56:49.538Z,92.70
2023-03-14T07:59:16.074Z,92.80
2023-03-14T08:01:42.882Z,92.90
2023-03-14T08:04:09.742Z,92.60
2023-03-14T08:06:37.078Z,92.50
2023-03-14T08:09:04.698Z,92.60
2023-03-14T08:11:31.327Z,92.50
2023-03-14T08:13:57.868Z,92.30
2023-03-14T08:16:24.523Z,92.60
2023-03-14T08:18:51.185Z,92.60
2023-03-14T08:21:17.761Z,92.40
2023-03-14T08:23:44.373Z,92.40
2023-03-14T08:26:10.969Z,92.50
2023-03-14T08:28:37.721Z,92.70
2023-03-14T08:31:04.546Z,92.70
2023-03-14T08:33:31.452Z,93.00
2023-03-14T08:36:00.356Z,92.90
2023-03-14T08:38:27.091Z,93.00
2023-03-14T08:41:01.273Z,93.00
2023-03-14T08:43:29.106Z,93.10
2023-03-14T08:45:59.539Z,93.00
2023-03-14T08:48:26.197Z,92.90
2023-03-14T08:50:52.784Z,92.30
2023-03-14T08:53:19.685Z,92.50
2023-03-14T08:55:46.360Z,92.30
2023-03-14T08:58:13.332Z,92.00
2023-03-14T09:00:40.012Z,91.90
2023-03-14T09:03:06.590Z,91.90
2023-03-14T09:05:36.216Z,91.80
2023-03-14T09:08:03.092Z,91.80
2023-03-14T09:10:29.635Z,91.90
2023-03-14T09:12:56.246Z,92.10
2023-03-14T09:15:22.948Z,92.20
2023-03-14T09:17:49.490Z,92.40
2023-03-14T09:20:16.266Z,92.60
2023-03-14T09:22:42.851Z,92.50
2023-03-14T09:25:10.576Z,92.50
2023-03-14T09:27:37.153Z,92.10
2023-03-14T09:30:04.757Z,91.70
2023-03-14T09:32:32.469Z,91.50
2023-03-14T09:34:59.198Z,91.70
2023-03-14T09:37:25.980Z,92.20
2023-03-14T09:39:52.622Z,91.80
2023-03-14T09:42:24.294Z,91.50
2023-03-14T09:45:06.574Z,90.90
2023-03-14T09:47:34.533Z,91.20
2023-03-14T09:50:02.572Z,91.50
2023-03-14T09:52:36.766Z,91.70
2023-03-14T09:55:12.334Z,91.80
2023-03-14T09:57:40.415Z,91.80
2023-03-14T10:00:21.553Z,92.20
2023-03-14T10:02:52.083Z,92.80
2023-03-14T10:05:20.962Z,93.70
2023-03-14T10:07:47.635Z,93.90
2023-03-14T10:10:24.013Z,94.00
2023-03-14T10:13:10.436Z,93.70
2023-03-14T10:15:38.214Z,93.70
2023-03-14T10:18:12.918Z,93.90
2023-03-14T10:20:46.075Z,94.30
2023-03-14T10:23:12.597Z,95.50
2023-03-14T10:25:44.668Z,95.70
2023-03-14T10:28:23.769Z,96.50
2023-03-14T10:30:50.368Z,96.80
2023-03-14T10:33:24.082Z,97.10
2023-03-14T10:35:56.972Z,97.30
2023-03-14T10:38:27.277Z,97.20
2023-03-14T10:40:55.893Z,96.90
2023-03-14T10:43:29.128Z,96.10
2023-03-14T10:46:03.602Z,95.90
2023-03-14T10:48:34.287Z,96.10
2023-03-14T10:51:04.292Z,96.70
2023-03-14T10:53:55.366Z,97.30
2023-03-14T10:56:23.993Z,97.60
2023-03-14T10:58:53.309Z,98.10
2023-03-14T11:01:45.262Z,98.80
2023-03-14T11:04:44.957Z,99.80
2023-03-14T11:07:22.826Z,99.60
2023-03-14T11:10:20.720Z,99.90
2023-03-14T11:13:10.077Z,99.90
2023-03-14T11:16:02.422Z,99.90
2023-03-14T11:18:48.496Z,99.90
2023-03-14T11:21:43.212Z,99.90
2023-03-14T11:24:28.629Z,99.90
2023-03-14T11:27:07.701Z,99.90
2023-03-14T11:29:39.683Z,99.90
2023-03-14T11:32:14.772Z,99.90
2023-03-14T11:34:51.759Z,99.90
2023-03-14T11:37:37.359Z,99.90
2023-03-14T11:40:17.239Z,99.90
2023-03-14T11:42:47.094Z,99.90
2023-03-14T11:45:30.154Z,99.90
2023-03-14T11:48:23.201Z,99.90
2023-03-14T11:50:53.722Z,99.90
2023-03-14T11:53:44.452Z,99.90
2023-03-14T11:56:25.678Z,99.90
2023-03-14T11:58:58.256Z,99.90
2023-03-14T12:01:29.990Z,99.90
2023-03-14T12:04:34.987Z,99.90
2023-03-14T12:07:09.684Z,99.90
2023-03-14T12:09:37.039Z,99.90
2023-03-14T12:12:06.360Z,99.90
2023-03-14T12:14:37.971Z,99.90
2023-03-14T12:17:13.336Z,99.90
2023-03-14T12:19:40.853Z,99.90
2023-03-14T12:22:16.348Z,99.90
2023-03-14T12:24:49.887Z,99.90
2023-03-14T12:27:51.545Z,99.90
2023-03-14T12:30:30.501Z,99.90
2023-03-14T12:33:18.883Z,99.90
2023-03-14T12:35:50.132Z,99.90
2023-03-14T12:38:25.330Z,99.90
2023-03-14T12:41:20.994Z,99.90
2023-03-14T12:43:47.936Z,99.90
2023-03-14T12:46:29.875Z,99.90
2023-03-14T12:49:01.054Z,99.90
2023-03-14T12:51:30.507Z,99.90
2023-03-14T12:54:05.475Z,99.30
2023-03-14T12:56:56.459Z,99.20
2023-03-14T12:59:38.025Z,98.90
2023-03-14T13:02:07.624Z,99.00
2023-03-14T13:04:58.354Z,99.10
2023-03-14T13:07:40.255Z,99.00
2023-03-14T13:12:45.746Z,99.60
2023-03-14T13:15:38.822Z,99.50
2023-03-14T13:18:35.043Z,99.20
2023-03-14T13:21:04.796Z,98.80
2023-03-14T13:23:34.489Z,98.50
2023-03-14T13:26:02.211Z,98.10
2023-03-14T13:28:31.603Z,97.80
2023-03-14T13:31:03.358Z,97.20
2023-03-14T13:33:30.056Z,96.80
2023-03-14T13:36:03.494Z,96.60
2023-03-14T13:38:32.497Z,96.40
2023-03-14T13:41:01.209Z,96.00
2023-03-14T13:43:49.012Z,95.60
2023-03-14T13:46:17.785Z,96.20
2023-03-14T13:48:54.174Z,96.10
2023-03-14T13:51:22.383Z,96.00
2023-03-14T13:53:52.932Z,95.60
2023-03-14T13:56:27.105Z,95.30
2023-03-14T13:58:54.023Z,94.80
2023-03-14T14:01:30.011Z,94.60
2023-03-14T14:03:58.074Z,94.50
2023-03-14T14:06:31.086Z,94.00
2023-03-14T14:09:04.742Z,93.30
2023-03-14T14:11:47.092Z,92.00
2023-03-14T14:14:52.179Z,91.90
2023-03-14T14:17:24.954Z,92.60
2023-03-14T14:19:52.796Z,92.20
2023-03-14T14:22:20.708Z,92.50
2023-03-14T14:24:48.597Z,92.20
2023-03-14T14:27:27.606Z,92.70
2023-03-14T14:30:04.273Z,93.70
2023-03-14T14:32:40.899Z,94.80
2023-03-14T14:35:10.932Z,95.70
2023-03-14T14:37:45.072Z,95.30
2023-03-14T14:40:19.963Z,95.20
2023-03-14T14:42:47.102Z,94.20
2023-03-14T14:45:21.893Z,94.00
2023-03-14T14:47:55.325Z,93.30
2023-03-14T14:50:48.027Z,92.60
2023-03-14T14:53:24.504Z,91.10
2023-03-14T14:55:53.788Z,91.10
2023-03-14T14:58:38.483Z,91.10
2023-03-14T15:01:15.383Z,90.10
2023-03-14T15:03:45.016Z,90.30
2023-03-14T15:06:13.885Z,89.60
2023-03-14T15:08:40.720Z,87.60
2023-03-14T15:11:09.743Z,86.20
2023-03-14T15:13:36.496Z,86.20
2023-03-14T15:16:03.134Z,84.60
2023-03-14T15:18:31.369Z,83.60
2023-03-14T15:20:57.981Z,83.50
2023-03-14T15:23:24.944Z,83.20
2023-03-14T15:25:55.974Z,83.70
2023-03-14T15:28:29.060Z,83.60
2023-03-14T15:30:58.106Z,83.40
2023-03-14T15:33:26.228Z,83.20
2023-03-14T15:35:53.282Z,83.30
2023-03-14T15:38:23.653Z,84.10
2023-03-14T15:40:51.259Z,84.60
2023-03-14T15:43:18.990Z,85.20
2023-03-14T15:45:46.326Z,85.70
2023-03-14T15:48:16.868Z,85.70
2023-03-14T15:50:44.223Z,85.50
2023-03-14T15:53:11.376Z,88.10
2023-03-14T15:55:38.128Z,90.20
2023-03-14T15:58:05.127Z,90.90
2023-03-14T16:00:32.566Z,91.70
2023-03-14T16:02:59.180Z,92.50
2023-03-14T16:05:25.736Z,93.30
2023-03-14T16:07:52.311Z,93.60
2023-03-14T16:10:18.918Z,94.10
2023-03-14T16:12:45.498Z,94.20
2023-03-14T16:15:12.045Z,94.30
2023-03-14T16:17:40.934Z,94.50
2023-03-14T16:20:08.530Z,94.60
2023-03-14T16:22:36.572Z,94.90
2023-03-14T16:25:05.631Z,94.90
2023-03-14T16:27:33.037Z,95.50
2023-03-14T16:30:00.417Z,95.70
2023-03-14T16:32:27.615Z,95.70
2023-03-14T16:34:54.289Z,95.50
2023-03-14T16:37:22.882Z,95.30
2023-03-14T16:40:10.269Z,95.00
2023-03-14T16:42:36.107Z,95.40
2023-03-14T16:45:02.686Z,95.50
2023-03-14T16:47:31.041Z,95.70
2023-03-14T16:49:57.745Z,95.70
2023-03-14T16:52:25.303Z,95.60
2023-03-14T16:54:51.840Z,95.50
2023-03-14T16:57:18.463Z,95.90
2023-03-14T16:59:45.053Z,96.10
2023-03-14T17:02:11.994Z,96.60
2023-03-14T17:04:41.622Z,96.80
2023-03-14T17:07:08.755Z,96.90
2023-03-14T17:09:35.291Z,96.80
2023-03-14T17:12:01.830Z,96.70
2023-03-14T17:14:28.453Z,96.80
2023-03-14T17:16:55.175Z,96.60
2023-03-14T17:19:21.724Z,97.00
2023-03-14T17:21:48.293Z,96.70
2023-03-14T17:24:14.916Z,96.90
2023-03-14T17:26:41.464Z,96.80
2023-03-14T17:29:08.056Z,96.60
2023-03-14T17:31:34.732Z,96.60
2023-03-14T17:34:01.329Z,96.50
2023-03-14T17:36:30.478Z,96.80
2023-03-14T17:38:58.689Z,96.80
2023-03-14T17:41:25.352Z,97.00
2023-03-14T17:43:51.932Z,96.90
2023-03-14T17:46:18.709Z,96.50
2023-03-14T17:48:47.655Z,96.70
2023-03-14T17:51:15.912Z,96.50
2023-03-14T17:53:42.558Z,96.70
2023-03-14T17:56:11.578Z,96.80
2023-03-14T17:58:38.679Z,96.70
2023-03-14T18:01:16.870Z,96.90
2023-03-14T18:03:45.502Z,97.20
2023-03-14T18:06:13.715Z,97.20
2023-03-14T18:08:43.849Z,97.20
2023-03-14T18:11:11.957Z,97.40
2023-03-14T18:13:39.730Z,97.50
2023-03-14T18:16:07.586Z,97.70
2023-03-14T18:18:34.283Z,98.20
2023-03-14T18:21:00.842Z,98.30
2023-03-14T18:23:27.386Z,98.70
2023-03-14T18:25:53.984Z,99.00
2023-03-14T18:28:21.947Z,99.10
2023-03-14T18:30:52.212Z,99.20
2023-03-14T18:33:22.278Z,99.40
2023-03-14T18:35:51.999Z,99.40
2023-03-14T18:38:20.027Z,99.50
2023-03-14T18:40:46.601Z,99.60
2023-03-14T18:43:13.169Z,99.40
2023-03-14T18:45:39.847Z,99.50
2023-03-14T18:48:06.688Z,99.60
2023-03-14T18:50:33.323Z,99.60
2023-03-14T18:52:59.953Z,99.70
2023-03-14T18:55:26.528Z,99.60
2023-03-14T18:57:53.154Z,99.80
2023-03-14T19:00:20.400Z,99.70
2023-03-14T19:02:46.965Z,99.60
2023-03-14T19:05:13.820Z,99.60
2023-03-14T19:07:40.448Z,99.70
2023-03-14T19:10:07.378Z,99.70
2023-03-14T19:12:34.039Z,99.70
2023-03-14T19:15:00.719Z,99.60
2023-03-14T19:17:27.294Z,99.50
2023-03-14T19:19:53.994Z,99.50
2023-03-14T19:22:20.954Z,99.50
2023-03-14T19:24:47.689Z,99.40
2023-03-14T19:27:14.419Z,99.20
2023-03-14T19:29:42.280Z,98.80
2023-03-14T19:32:10.117Z,98.80
2023-03-14T19:34:36.814Z,98.80
2023-03-14T19:37:03.451Z,98.60
2023-03-14T19:39:30.175Z,98.40
2023-03-14T19:41:59.304Z,98.50
2023-03-14T19:44:26.484Z,98.30
2023-03-14T19:46:53.893Z,98.10
2023-03-14T19:49:21.705Z,97.90
2023-03-14T19:51:49.175Z,97.90
2023-03-14T19:54:15.818Z,98.00
2023-03-14T19:56:42.541Z,97.90
2023-03-14T19:59:09.068Z,97.70
2023-03-14T20:01:35.987Z,97.60
2023-03-14T20:04:05.680Z,97.40
2023-03-14T20:06:32.861Z,97.20
2023-03-14T20:09:02.107Z,97.20
2023-03-14T20:11:28.704Z,97.20
2023-03-14T20:13:55.247Z,97.00
2023-03-14T20:16:21.843Z,96.80
2023-03-14T20:18:48.452Z,96.80
2023-03-14T20:21:15.055Z,96.60
2023-03-14T20:23:43.944Z,96.60
2023-03-14T20:26:10.888Z,96.40
2023-03-14T20:28:37.538Z,96.10
2023-03-14T20:31:07.434Z,96.10
2023-03-14T20:33:34.437Z,96.00
2023-03-14T20:36:01.621Z,96.00
2023-03-14T20:38:29.028Z,95.90
2023-03-14T20:40:57.155Z,95.60
2023-03-14T20:43:23.941Z,95.60
2023-03-14T20:45:55.877Z,95.10
2023-03-14T20:48:23.030Z,95.30
2023-03-14T20:50:50.024Z,95.00
2023-03-14T20:53:17.329Z,95.20
2023-03-14T20:55:44.056Z,95.20
2023-03-14T20:58:14.001Z,94.90
2023-03-14T21:00:44.660Z,94.80
2023-03-14T21:03:11.268Z,94.70
2023-03-14T21:05:41.568Z,94.50
2023-03-14T21:08:08.195Z,94.50
2023-03-14T21:10:35.263Z,94.50
2023-03-14T21:13:01.880Z,94.50
2023-03-14T21:15:28.408Z,94.40
2023-03-14T21:17:55.723Z,94.20
2023-03-14T21:20:25.866Z,94.10
2023-03-14T21:22:53.167Z,94.10
2023-03-14T21:25:19.804Z,94.20
2023-03-14T21:27:46.323Z,94.30
2023-03-14T21:30:13.437Z,94.40
2023-03-14T21:32:40.028Z,94.30
2023-03-14T21:35:06.812Z,94.30
2023-03-14T21:37:33.783Z,94.20
2023-03-14T21:40:00.411Z,94.20
2023-03-14T21:42:27.270Z,94.30
2023-03-14T21:44:53.854Z,94.30
2023-03-14T21:47:23.578Z,93.90
2023-03-14T21:49:51.502Z,93.70
2023-03-14T21:52:18.244Z,93.80
2023-03-14T21:54:44.954Z,93.60
2023-03-14T21:57:14.226Z,93.90
2023-03-14T21:59:41.856Z,94.10
2023-03-14T22:02:12.695Z,94.10
2023-03-14T22:04:39.960Z,94.30
2023-03-14T22:07:10.227Z,94.50
2023-03-14T22:09:39.987Z,94.40
2023-03-14T22:12:06.977Z,94.30
2023-03-14T22:14:34.091Z,94.60
2023-03-14T22:17:01.335Z,94.60
2023-03-14T22:19:27.967Z,95.10
2023-03-14T22:21:54.529Z,95.80
2023-03-14T22:24:21.260Z,96.40
2023-03-14T22:26:47.810Z,97.20
2023-03-14T22:29:14.417Z,97.70
2023-03-14T22:31:40.987Z,98.10
2023-03-14T22:34:07.582Z,98.40
2023-03-14T22:36:34.125Z,98.30
2023-03-14T22:39:00.734Z,98.70
2023-03-14T22:41:27.317Z,98.70
2023-03-14T22:43:55.380Z,99.20
2023-03-14T22:46:21.980Z,99.20
2023-03-14T22:48:48.503Z,99.40
2023-03-14T22:51:15.406Z,99.40
2023-03-14T22:53:41.960Z,99.60
2023-03-14T22:56:09.769Z,99.50
2023-03-14T22:58:36.734Z,99.60
2023-03-14T23:01:04.157Z,99.90
2023-03-14T23:03:30.814Z,99.90
2023-03-14T23:05:57.644Z,99.90
2023-03-14T23:08:24.466Z,99.90
2023-03-14T23:10:53.265Z,99.90
2023-03-14T23:13:19.780Z,99.90
2023-03-14T23:15:46.301Z,99.90
2023-03-14T23:18:16.074Z,99.90
2023-03-14T23:20:48.219Z,99.90
2023-03-14T23:23:14.897Z,99.90
2023-03-14T23:25:52.906Z,99.90
2023-03-14T23:28:23.144Z,99.90
2023-03-14T23:30:56.328Z,99.90
2023-03-14T23:33:23.832Z,99.90
2023-03-14T23:35:50.545Z,99.90
2023-03-14T23:38:17.159Z,99.90
2023-03-14T23:40:43.905Z,99.90
2023-03-14T23:43:10.571Z,99.90
2023-03-14T23:45:37.328Z,99.90
2023-03-14T23:48:04.771Z,99.90
2023-03-14T23:50:31.344Z,99.90
2023-03-14T23:52:57.895Z,99.90
2023-03-14T23:55:24.457Z,99.90
2023-03-14T23:57:52.061Z,99.90
